createdAt,value
2023-08-16T00:01:49.404Z,100769.25
2023-08-16T00:04:17.834Z,100764.84
2023-08-16T00:06:45.933Z,100766.91
2023-08-16T00:09:14.328Z,100766.22
2023-08-16T00:11:44.073Z,100767.91
2023-08-16T00:14:12.065Z,100768.94
2023-08-16T00:16:41.319Z,100769.44
2023-08-16T00:19:09.626Z,100769.75
2023-08-16T00:21:37.838Z,100770.78
2023-08-16T00:24:07.438Z,100771.28
2023-08-16T00:26:35.828Z,100771.12
2023-08-16T00:29:05.640Z,100770.28
2023-08-16T00:31:33.626Z,100765.19
2023-08-16T00:34:01.944Z,100759.75
2023-08-16T00:36:29.991Z,100765.50
2023-08-16T00:38:57.985Z,100773.63
2023-08-16T00:41:26.184Z,100776.50
2023-08-16T00:43:54.149Z,100770.25
2023-08-16T00:46:24.137Z,100772.94
2023-08-16T00:48:52.754Z,100765.16
2023-08-16T00:51:20.954Z,100768.03
2023-08-16T00:53:49.110Z,100775.81
2023-08-16T00:56:18.874Z,100780.53
2023-08-16T00:58:46.990Z,100776.81
2023-08-16T01:01:15.389Z,100774.28
2023-08-16T01:03:45.544Z,100776.47
2023-08-16T01:06:13.783Z,100776.81
2023-08-16T01:08:42.288Z,100780.16
2023-08-16T01:11:18.432Z,100790.41
2023-08-16T01:13:56.647Z,100787.84
2023-08-16T01:16:28.091Z,100784.16
2023-08-16T01:18:58.427Z,100793.97
2023-08-16T01:21:28.241Z,100795.31
2023-08-16T01:24:07.069Z,100793.03
2023-08-16T01:26:39.648Z,100793.88
2023-08-16T01:29:09.680Z,100800.13
2023-08-16T01:31:39.700Z,100796.56
2023-08-16T01:34:08.986Z,100805.69
2023-08-16T01:36:37.686Z,100796.75
2023-08-16T01:39:06.063Z,100796.28
2023-08-16T01:41:41.063Z,100798.12
2023-08-16T01:44:10.685Z,100804.06
2023-08-16T01:46:41.115Z,100805.41
2023-08-16T01:49:09.887Z,100804.44
2023-08-16T01:51:38.635Z,100808.50
2023-08-16T01:54:07.823Z,100812.91
2023-08-16T01:56:36.071Z,100812.91
2023-08-16T01:59:05.765Z,100817.81
2023-08-16T02:01:33.806Z,100819.34
2023-08-16T02:04:02.152Z,100810.19
2023-08-16T02:06:32.060Z,100812.22
2023-08-16T02:09:00.218Z,100811.41
2023-08-16T02:11:28.486Z,100822.06
2023-08-16T02:13:56.424Z,100821.22
2023-08-16T02:16:30.180Z,100818.31
2023-08-16T02:18:58.220Z,100814.94
2023-08-16T02:21:26.784Z,100813.59
2023-08-16T02:23:56.805Z,100814.59
2023-08-16T02:26:24.812Z,100820.19
2023-08-16T02:28:53.399Z,100818.31
2023-08-16T02:31:21.461Z,100819.00
2023-08-16T02:33:50.914Z,100818.50
2023-08-16T02:36:19.171Z,100820.56
2023-08-16T02:38:47.190Z,100819.41
2023-08-16T02:41:15.183Z,100820.25
2023-08-16T02:43:44.878Z,100811.41
2023-08-16T02:46:12.903Z,100812.94
2023-08-16T02:48:40.975Z,100811.75
2023-08-16T02:51:10.601Z,100813.25
2023-08-16T02:53:38.640Z,100810.53
2023-08-16T02:56:06.613Z,100809.53
2023-08-16T02:58:38.023Z,100810.19
2023-08-16T03:01:06.153Z,100813.63
2023-08-16T03:03:34.450Z,100815.31
2023-08-16T03:06:02.741Z,100811.22
2023-08-16T03:08:33.601Z,100811.88
2023-08-16T03:11:02.783Z,100815.31
2023-08-16T03:13:31.313Z,100822.59
2023-08-16T03:15:59.280Z,100820.41
2023-08-16T03:18:28.926Z,100825.47
2023-08-16T03:20:57.724Z,100818.03
2023-08-16T03:23:25.989Z,100822.78
2023-08-16T03:25:55.925Z,100827.50
2023-08-16T03:28:25.112Z,100830.91
2023-08-16T03:30:53.286Z,100831.06
2023-08-16T03:33:21.664Z,100836.50
2023-08-16T03:35:50.140Z,100832.94
2023-08-16T03:38:18.111Z,100829.87
2023-08-16T03:40:46.496Z,100840.37
2023-08-16T03:43:15.788Z,100837.50
2023-08-16T03:45:44.887Z,100843.09
2023-08-16T03:48:13.373Z,100848.84
2023-08-16T03:50:41.454Z,100853.75
2023-08-16T03:53:09.448Z,100855.28
2023-08-16T03:55:37.643Z,100852.41
2023-08-16T03:58:05.906Z,100851.56
2023-08-16T04:00:35.174Z,100845.44
2023-08-16T04:03:05.331Z,100853.25
2023-08-16T04:05:34.443Z,100852.25
2023-08-16T04:08:02.413Z,100853.75
2023-08-16T04:10:30.850Z,100857.97
2023-08-16T04:12:58.839Z,100852.56
2023-08-16T04:15:26.921Z,100853.22
2023-08-16T04:17:57.676Z,100856.81
2023-08-16T04:20:26.937Z,100858.50
2023-08-16T04:22:55.416Z,100851.91
2023-08-16T04:25:23.561Z,100860.37
2023-08-16T04:27:51.899Z,100858.66
2023-08-16T04:30:20.247Z,100855.97
2023-08-16T04:32:49.699Z,100850.37
2023-08-16T04:35:19.459Z,100850.91
2023-08-16T04:37:48.133Z,100858.16
2023-08-16T04:40:16.293Z,100859.69
2023-08-16T04:42:44.363Z,100866.47
2023-08-16T04:45:12.993Z,100868.69
2023-08-16T04:47:41.024Z,100864.25
2023-08-16T04:50:09.715Z,100863.41
2023-08-16T04:52:39.621Z,100865.78
2023-08-16T04:55:08.439Z,100869.00
2023-08-16T04:57:36.796Z,100875.62
2023-08-16T05:00:08.789Z,100872.56
2023-08-16T05:02:38.319Z,100865.09
2023-08-16T05:05:07.425Z,100863.06
2023-08-16T05:07:35.587Z,100867.47
2023-08-16T05:10:06.020Z,100868.50
2023-08-16T05:12:34.320Z,100867.97
2023-08-16T05:15:02.428Z,100872.38
2023-08-16T05:17:32.080Z,100883.94
2023-08-16T05:20:00.807Z,100887.63
2023-08-16T05:22:28.960Z,100895.94
2023-08-16T05:24:56.938Z,100898.16
2023-08-16T05:27:26.618Z,100902.38
2023-08-16T05:29:54.678Z,100907.63
2023-08-16T05:32:23.638Z,100905.75
2023-08-16T05:34:53.430Z,100910.16
2023-08-16T05:37:21.964Z,100908.47
2023-08-16T05:39:50.402Z,100923.38
2023-08-16T05:42:18.672Z,100930.53
2023-08-16T05:44:48.266Z,100928.13
2023-08-16T05:47:16.356Z,100927.81
2023-08-16T05:49:44.699Z,100925.94
2023-08-16T05:52:12.675Z,100922.53
2023-08-16T05:54:40.757Z,100923.59
2023-08-16T05:57:09.037Z,100921.53
2023-08-16T05:59:37.038Z,100931.19
2023-08-16T06:02:07.898Z,100923.41
2023-08-16T06:04:36.357Z,100937.63
2023-08-16T06:07:05.370Z,100941.00
2023-08-16T06:09:34.894Z,100938.97
2023-08-16T06:12:03.153Z,100947.44
2023-08-16T06:14:31.190Z,100946.75
2023-08-16T06:16:59.175Z,100945.34
2023-08-16T06:19:28.791Z,100950.94
2023-08-16T06:21:56.851Z,100947.06
2023-08-16T06:24:24.887Z,100944.34
2023-08-16T06:26:53.185Z,100947.06
2023-08-16T06:29:21.179Z,100944.19
2023-08-16T06:31:49.451Z,100945.03
2023-08-16T06:34:18.114Z,100954.19
2023-08-16T06:36:47.914Z,100962.31
2023-08-16T06:39:15.995Z,100961.06
2023-08-16T06:41:44.741Z,100959.91
2023-08-16T06:44:12.997Z,100964.94
2023-08-16T06:46:40.978Z,100968.97
2023-08-16T06:49:09.528Z,100968.19
2023-08-16T06:51:37.585Z,100971.59
2023-08-16T06:54:07.128Z,100971.72
2023-08-16T06:56:36.901Z,100965.69
2023-08-16T06:59:06.419Z,100964.44
2023-08-16T07:01:34.417Z,100966.06
2023-08-16T07:04:03.830Z,100967.28
2023-08-16T07:06:32.663Z,100965.41
2023-08-16T07:09:01.167Z,100974.50
2023-08-16T07:11:30.884Z,100981.09
2023-08-16T07:14:00.652Z,100975.72
2023-08-16T07:16:28.896Z,100977.22
2023-08-16T07:18:57.189Z,100985.78
2023-08-16T07:21:25.174Z,100989.84
2023-08-16T07:23:53.141Z,100974.75
2023-08-16T07:26:21.383Z,100973.72
2023-08-16T07:28:50.717Z,100981.19
2023-08-16T07:31:19.000Z,100974.16
2023-08-16T07:33:47.265Z,100981.00
2023-08-16T07:36:15.213Z,100983.44
2023-08-16T07:38:43.198Z,100985.87
2023-08-16T07:41:11.497Z,100986.31
2023-08-16T07:43:39.488Z,100986.25
2023-08-16T07:46:08.964Z,100986.25
2023-08-16T07:48:37.274Z,100983.53
2023-08-16T07:51:05.701Z,100986.91
2023-08-16T07:53:33.964Z,100999.69
2023-08-16T07:56:02.214Z,100997.94
2023-08-16T07:58:30.516Z,100999.41
2023-08-16T08:00:58.465Z,100992.34
2023-08-16T08:03:28.031Z,100999.53
2023-08-16T08:06:02.625Z,101001.00
2023-08-16T08:08:31.044Z,101005.88
2023-08-16T08:10:59.101Z,101010.37
2023-08-16T08:13:27.398Z,101002.81
2023-08-16T08:15:56.345Z,101001.00
2023-08-16T08:18:24.594Z,101004.19
2023-08-16T08:20:54.098Z,100993.84
2023-08-16T08:23:22.315Z,100995.31
2023-08-16T08:25:50.508Z,100996.06
2023-08-16T08:28:18.730Z,100991.97
2023-08-16T08:30:46.958Z,100995.75
2023-08-16T08:33:15.003Z,100989.94
2023-08-16T08:35:44.701Z,100988.34
2023-08-16T08:38:14.686Z,100980.88
2023-08-16T08:40:42.786Z,100984.22
2023-08-16T08:43:12.295Z,100985.53
2023-08-16T08:45:43.240Z,100986.13
2023-08-16T08:48:13.699Z,100978.91
2023-08-16T08:50:43.954Z,100974.53
2023-08-16T08:53:12.804Z,100985.09
2023-08-16T08:55:46.443Z,100979.22
2023-08-16T08:58:18.704Z,100986.81
2023-08-16T09:00:47.744Z,100989.87
2023-08-16T09:03:19.894Z,100991.47
2023-08-16T09:05:49.248Z,100989.06
2023-08-16T09:08:17.900Z,100994.72
2023-08-16T09:10:47.777Z,100991.19
2023-08-16T09:13:17.270Z,100989.16
2023-08-16T09:15:45.614Z,100983.78
2023-08-16T09:18:15.379Z,100978.97
2023-08-16T09:20:44.371Z,100969.91
2023-08-16T09:23:14.642Z,100963.19
2023-08-16T09:25:43.100Z,100968.66
2023-08-16T09:28:16.316Z,100963.16
2023-08-16T09:30:45.534Z,100973.06
2023-08-16T09:33:15.529Z,100975.41
2023-08-16T09:35:50.028Z,100974.16
2023-08-16T09:38:37.928Z,100971.22
2023-08-16T09:41:14.542Z,100980.09
2023-08-16T09:43:44.511Z,100971.66
2023-08-16T09:46:13.913Z,100976.28
2023-08-16T09:49:10.614Z,100975.87
2023-08-16T09:54:02.743Z,100967.66
2023-08-16T09:56:38.464Z,100977.97
2023-08-16T09:59:37.033Z,100976.69
2023-08-16T10:09:36.961Z,100967.84
2023-08-16T10:12:07.694Z,100965.28
2023-08-16T10:14:39.242Z,100968.69
2023-08-16T10:17:10.310Z,100961.88
2023-08-16T10:19:45.376Z,100964.34
2023-08-16T10:22:32.850Z,100978.66
2023-08-16T10:25:07.698Z,100967.06
2023-08-16T10:27:39.188Z,100969.97
2023-08-16T10:30:14.815Z,100965.94
2023-08-16T10:32:45.453Z,100961.72
2023-08-16T10:35:15.219Z,100960.75
2023-08-16T10:37:47.767Z,100962.69
2023-08-16T10:42:54.705Z,100959.34
2023-08-16T10:48:11.493Z,100964.66
2023-08-16T10:50:40.111Z,100963.22
2023-08-16T10:53:09.438Z,100960.47
2023-08-16T10:55:37.884Z,100965.72
2023-08-16T10:58:05.911Z,100963.22
2023-08-16T11:00:43.269Z,100965.94
2023-08-16T11:03:20.479Z,100966.78
2023-08-16T11:05:50.142Z,100967.19
2023-08-16T11:08:18.391Z,100972.25
2023-08-16T11:10:46.690Z,100969.53
2023-08-16T11:13:15.175Z,100971.22
2023-08-16T11:15:44.744Z,100961.53
2023-08-16T11:18:15.764Z,100958.56
2023-08-16T11:20:45.368Z,100963.97
2023-08-16T11:23:13.583Z,100959.22
2023-08-16T11:25:41.949Z,100958.66
2023-08-16T11:28:10.358Z,100967.62
2023-08-16T11:30:38.413Z,100956.41
2023-08-16T11:33:16.435Z,100958.87
2023-08-16T11:35:47.202Z,100957.31
2023-08-16T11:38:16.575Z,100961.59
2023-08-16T11:40:48.472Z,100965.56
2023-08-16T11:43:16.843Z,100962.84
2023-08-16T11:45:45.176Z,100961.38
2023-08-16T11:48:16.213Z,100955.56
2023-08-16T11:50:44.637Z,100968.06
2023-08-16T11:53:18.404Z,100972.37
2023-08-16T11:55:57.932Z,100965.66
2023-08-16T11:58:26.756Z,100962.47
2023-08-16T12:00:55.663Z,100958.44
2023-08-16T12:03:25.515Z,100958.22
2023-08-16T12:05:53.767Z,100952.50
2023-08-16T12:08:22.801Z,100956.09
2023-08-16T12:10:55.516Z,100953.41
2023-08-16T12:13:25.344Z,100954.47
2023-08-16T12:15:53.636Z,100949.19
2023-08-16T12:18:23.944Z,100950.66
2023-08-16T12:20:54.330Z,100948.53
2023-08-16T12:23:22.818Z,100947.41
2023-08-16T12:25:51.610Z,100956.53
2023-08-16T12:28:20.380Z,100953.38
2023-08-16T12:30:48.682Z,100942.13
2023-08-16T12:33:17.226Z,100941.69
2023-08-16T12:35:45.438Z,100943.81
2023-08-16T12:38:15.115Z,100936.16
2023-08-16T12:40:45.974Z,100936.19
2023-08-16T12:45:45.396Z,100930.47
2023-08-16T12:48:13.568Z,100927.34
2023-08-16T12:50:42.071Z,100924.91
2023-08-16T13:00:48.347Z,100900.25
2023-08-16T13:10:56.831Z,100894.69
2023-08-16T13:16:08.530Z,100898.00
2023-08-16T13:21:19.492Z,100906.34
2023-08-16T13:24:23.411Z,100904.47
2023-08-16T13:27:00.258Z,100902.53
2023-08-16T13:29:30.559Z,100897.91
2023-08-16T13:32:05.821Z,100900.41
2023-08-16T13:39:43.293Z,100886.22
2023-08-16T13:45:16.239Z,100887.41
2023-08-16T13:47:33.841Z,100893.59
2023-08-16T13:50:01.912Z,100893.03
2023-08-16T13:52:30.309Z,100885.13
2023-08-16T13:54:58.835Z,100886.81
2023-08-16T13:57:28.519Z,100888.00
2023-08-16T13:59:56.789Z,100879.31
2023-08-16T14:02:25.431Z,100867.50
2023-08-16T14:04:54.025Z,100877.97
2023-08-16T14:07:22.013Z,100874.16
2023-08-16T14:09:50.073Z,100873.22
2023-08-16T14:12:18.527Z,100866.38
2023-08-16T14:14:47.922Z,100853.87
2023-08-16T14:17:16.041Z,100850.09
2023-08-16T14:19:45.568Z,100857.13
2023-08-16T14:22:13.569Z,100851.28
2023-08-16T14:24:41.648Z,100847.09
2023-08-16T14:27:09.937Z,100844.13
2023-08-16T14:29:38.034Z,100851.22
2023-08-16T14:32:07.884Z,100838.78
2023-08-16T14:34:36.198Z,100858.22
2023-08-16T14:37:04.242Z,100859.38
2023-08-16T14:39:32.654Z,100851.69
2023-08-16T14:42:01.006Z,100854.78
2023-08-16T14:44:29.589Z,100850.94
2023-08-16T14:46:57.632Z,100851.47
2023-08-16T14:49:27.332Z,100848.47
2023-08-16T14:51:55.403Z,100847.28
2023-08-16T14:54:23.488Z,100845.09
2023-08-16T14:56:51.853Z,100846.44
2023-08-16T14:59:19.889Z,100848.31
2023-08-16T15:01:47.960Z,100839.69
2023-08-16T15:04:16.301Z,100843.72
2023-08-16T15:06:46.046Z,100831.47
2023-08-16T15:09:14.751Z,100834.22
2023-08-16T15:11:43.118Z,100831.84
2023-08-16T15:14:11.434Z,100825.88
2023-08-16T15:16:39.557Z,100830.88
2023-08-16T15:19:07.842Z,100833.53
2023-08-16T15:21:38.661Z,100835.94
2023-08-16T15:24:08.747Z,100828.62
2023-08-16T15:26:37.152Z,100825.03
2023-08-16T15:29:05.724Z,100825.28
2023-08-16T15:31:33.832Z,100820.50
2023-08-16T15:34:02.249Z,100830.13
2023-08-16T15:36:32.552Z,100825.22
2023-08-16T15:39:00.620Z,100816.66
2023-08-16T15:41:33.783Z,100808.72
2023-08-16T15:44:03.339Z,100816.44
2023-08-16T15:46:32.541Z,100812.16
2023-08-16T15:49:00.636Z,100814.75
2023-08-16T15:51:28.817Z,100819.47
2023-08-16T15:53:57.087Z,100810.81
2023-08-16T15:56:25.300Z,100814.75
2023-08-16T15:58:54.715Z,100820.53
2023-08-16T16:01:25.744Z,100813.00
2023-08-16T16:03:54.043Z,100815.03
2023-08-16T16:06:22.111Z,100815.25
2023-08-16T16:08:50.168Z,100816.50
2023-08-16T16:11:23.013Z,100822.94
2023-08-16T16:13:51.491Z,100807.78
2023-08-16T16:16:21.475Z,100816.16
2023-08-16T16:18:49.601Z,100806.47
2023-08-16T16:21:17.624Z,100809.22
2023-08-16T16:23:45.974Z,100803.28
2023-08-16T16:26:13.996Z,100799.19
2023-08-16T16:28:42.166Z,100803.75
2023-08-16T16:31:10.584Z,100805.53
2023-08-16T16:33:39.939Z,100802.44
2023-08-16T16:36:08.500Z,100804.94
2023-08-16T16:38:36.849Z,100808.50
2023-08-16T16:41:04.919Z,100802.56
2023-08-16T16:43:32.999Z,100798.97
2023-08-16T16:46:01.852Z,100793.94
2023-08-16T16:48:29.877Z,100792.44
2023-08-16T16:50:59.499Z,100793.00
2023-08-16T16:53:27.803Z,100802.91
2023-08-16T16:55:55.875Z,100797.38
2023-08-16T16:58:23.914Z,100805.81
2023-08-16T17:00:52.245Z,100798.16
2023-08-16T17:03:20.338Z,100788.41
2023-08-16T17:05:48.410Z,100790.50
2023-08-16T17:08:18.023Z,100791.41
2023-08-16T17:10:46.114Z,100797.44
2023-08-16T17:13:15.245Z,100801.94
2023-08-16T17:15:43.603Z,100807.56
2023-08-16T17:18:11.752Z,100806.66
2023-08-16T17:20:39.806Z,100810.63
2023-08-16T17:23:08.188Z,100816.56
2023-08-16T17:25:38.250Z,100819.50
2023-08-16T17:28:06.549Z,100820.25
2023-08-16T17:30:36.120Z,100821.72
2023-08-16T17:33:04.753Z,100820.56
2023-08-16T17:35:33.313Z,100829.94
2023-08-16T17:38:01.639Z,100824.34
2023-08-16T17:40:29.800Z,100821.69
2023-08-16T17:42:59.551Z,100822.81
2023-08-16T17:45:27.897Z,100815.75
2023-08-16T17:47:55.976Z,100821.88
2023-08-16T17:50:24.168Z,100819.66
2023-08-16T17:52:52.499Z,100819.25
2023-08-16T17:55:20.536Z,100805.53
2023-08-16T17:57:49.144Z,100811.03
2023-08-16T18:00:19.296Z,100806.87
2023-08-16T18:02:47.703Z,100811.84
2023-08-16T18:05:16.383Z,100812.34
2023-08-16T18:07:44.591Z,100812.38
2023-08-16T18:10:12.976Z,100809.03
2023-08-16T18:12:41.015Z,100808.62
2023-08-16T18:15:10.255Z,100817.06
2023-08-16T18:17:40.064Z,100812.03
2023-08-16T18:20:10.014Z,100816.03
2023-08-16T18:22:38.548Z,100812.00
2023-08-16T18:25:06.977Z,100815.53
2023-08-16T18:27:35.165Z,100822.91
2023-08-16T18:30:03.624Z,100829.59
2023-08-16T18:32:31.769Z,100821.53
2023-08-16T18:35:01.657Z,100834.34
2023-08-16T18:37:32.438Z,100837.66
2023-08-16T18:40:00.530Z,100839.94
2023-08-16T18:42:28.641Z,100848.75
2023-08-16T18:44:57.185Z,100844.72
2023-08-16T18:47:25.554Z,100845.94
2023-08-16T18:49:54.229Z,100840.19
2023-08-16T18:52:23.966Z,100846.84
2023-08-16T18:54:52.190Z,100853.13
2023-08-16T18:57:21.300Z,100854.81
2023-08-16T18:59:49.861Z,100852.44
2023-08-16T19:02:17.887Z,100851.34
2023-08-16T19:04:46.045Z,100842.66
2023-08-16T19:07:14.401Z,100848.59
2023-08-16T19:09:43.823Z,100844.97
2023-08-16T19:12:13.911Z,100840.47
2023-08-16T19:14:42.756Z,100839.78
2023-08-16T19:17:10.788Z,100842.62
2023-08-16T19:19:38.912Z,100848.41
2023-08-16T19:22:07.243Z,100843.75
2023-08-16T19:24:35.322Z,100840.78
2023-08-16T19:27:04.828Z,100851.16
2023-08-16T19:29:33.205Z,100847.06
2023-08-16T19:32:01.717Z,100850.84
2023-08-16T19:34:29.798Z,100850.56
2023-08-16T19:36:58.123Z,100849.28
2023-08-16T19:39:26.431Z,100847.59
2023-08-16T19:41:54.440Z,100851.56
2023-08-16T19:44:24.265Z,100846.75
2023-08-16T19:46:52.298Z,100850.13
2023-08-16T19:49:21.145Z,100846.31
2023-08-16T19:51:49.591Z,100850.44
2023-08-16T19:54:17.672Z,100842.16
2023-08-16T19:56:45.732Z,100837.94
2023-08-16T19:59:14.092Z,100836.06
2023-08-16T20:01:45.240Z,100840.78
2023-08-16T20:04:13.795Z,100844.28
2023-08-16T20:06:42.756Z,100848.19
2023-08-16T20:09:11.141Z,100844.38
2023-08-16T20:11:39.554Z,100844.53
2023-08-16T20:14:07.654Z,100843.87
2023-08-16T20:16:37.739Z,100840.03
2023-08-16T20:19:09.091Z,100830.09
2023-08-16T20:21:37.140Z,100832.41
2023-08-16T20:24:06.171Z,100826.63
2023-08-16T20:26:34.255Z,100825.88
2023-08-16T20:29:02.382Z,100832.44
2023-08-16T20:31:30.782Z,100828.78
2023-08-16T20:33:58.862Z,100818.28
2023-08-16T20:36:28.355Z,100823.31
2023-08-16T20:38:56.675Z,100820.53
2023-08-16T20:41:26.790Z,100821.53
2023-08-16T20:43:54.819Z,100815.97
2023-08-16T20:46:35.687Z,100813.09
2023-08-16T20:49:08.229Z,100817.53
2023-08-16T20:51:38.231Z,100816.16
2023-08-16T20:54:14.125Z,100820.28
2023-08-16T20:56:43.113Z,100815.38
2023-08-16T20:59:11.202Z,100814.91
2023-08-16T21:01:43.548Z,100821.78
2023-08-16T21:04:13.271Z,100824.56
2023-08-16T21:06:42.713Z,100817.25
2023-08-16T21:09:10.732Z,100814.13
2023-08-16T21:11:39.106Z,100814.78
2023-08-16T21:14:09.311Z,100816.47
2023-08-16T21:16:37.436Z,100801.12
2023-08-16T21:19:05.933Z,100800.88
2023-08-16T21:21:34.948Z,100801.06
2023-08-16T21:24:04.697Z,100795.81
2023-08-16T21:26:33.104Z,100790.00
2023-08-16T21:29:01.774Z,100779.91
2023-08-16T21:31:29.882Z,100774.28
2023-08-16T21:33:58.208Z,100779.25
2023-08-16T21:36:26.447Z,100781.84
2023-08-16T21:38:55.006Z,100777.25
2023-08-16T21:41:24.706Z,100766.97
2023-08-16T21:43:52.763Z,100761.12
2023-08-16T21:46:20.840Z,100753.31
2023-08-16T21:48:49.491Z,100763.69
2023-08-16T21:51:17.696Z,100763.69
2023-08-16T21:53:45.681Z,100774.72
2023-08-16T21:56:14.422Z,100782.06
2023-08-16T21:58:43.866Z,100788.09
2023-08-16T22:01:11.992Z,100802.44
2023-08-16T22:03:40.324Z,100801.12
2023-08-16T22:06:08.380Z,100790.69
2023-08-16T22:08:36.453Z,100786.72
2023-08-16T22:11:06.465Z,100778.19
2023-08-16T22:13:35.276Z,100786.06
2023-08-16T22:16:04.893Z,100786.09
2023-08-16T22:18:33.184Z,100786.94
2023-08-16T22:21:03.868Z,100789.84
2023-08-16T22:23:33.478Z,100783.50
2023-08-16T22:26:01.594Z,100785.38
2023-08-16T22:28:29.727Z,100787.22
2023-08-16T22:30:58.005Z,100788.63
2023-08-16T22:33:27.440Z,100783.72
2023-08-16T22:35:55.524Z,100795.47
2023-08-16T22:38:24.632Z,100793.09
2023-08-16T22:40:52.994Z,100797.00
2023-08-16T22:43:21.009Z,100792.44
2023-08-16T22:45:49.584Z,100789.91
2023-08-16T22:48:17.807Z,100793.13
2023-08-16T22:50:47.162Z,100789.91
2023-08-16T22:53:15.488Z,100793.47
2023-08-16T22:55:43.741Z,100787.22
2023-08-16T22:58:11.839Z,100775.50
2023-08-16T23:00:40.547Z,100777.56
2023-08-16T23:03:09.491Z,100775.50
2023-08-16T23:05:37.611Z,100770.75
2023-08-16T23:08:08.063Z,100776.84
2023-08-16T23:10:36.126Z,100774.84
2023-08-16T23:13:24.227Z,100768.41
2023-08-16T23:15:52.438Z,100760.28
2023-08-16T23:18:20.914Z,100768.41
2023-08-16T23:20:48.975Z,100772.50
2023-08-16T23:23:18.784Z,100763.66
2023-08-16T23:25:47.004Z,100762.34
2023-08-16T23:28:15.062Z,100753.88
2023-08-16T23:30:43.390Z,100753.94
2023-08-16T23:33:11.399Z,100757.66
2023-08-16T23:35:39.669Z,100758.69
2023-08-16T23:38:08.013Z,100760.72
2023-08-16T23:40:37.394Z,100765.16
2023-08-16T23:43:05.844Z,100769.06
2023-08-16T23:45:34.154Z,100768.72
2023-08-16T23:48:03.007Z,100773.59
2023-08-16T23:50:31.085Z,100773.75
2023-08-16T23:52:59.386Z,100775.09
2023-08-16T23:55:27.458Z,100769.50
2023-08-16T23:57:56.884Z,100777.62
